Time;durP1;ratioP1;P1;durP2;ratioP2;P2;SDS_P1;SDS_P2;PMS_P1;PMS_P2;Temp;Humidity;BMP_temperature;BMP_pressure;BME280_temperature;BME280_humidity;BME280_pressure;Samples;Min_cycle;Max_cycle;Signal;HPM_P1;HPM_P2
2022/06/15 00:01:00;;;;;;;;;;;;;;;21.00;41.00;95875.63;10455279;28;1910;-60
2022/06/15 00:06:07;;;;;;;;;;;;;;;21.09;40.91;95875.88;10473946;28;1820;-56
2022/06/15 00:11:08;;;;;;;;;;;;;;;21.03;41.09;95869.06;10485358;28;1808;-57
2022/06/15 00:16:09;;;;;;;;;;;;;;;21.02;40.87;95872.75;10455696;28;2163;-59
2022/06/15 00:21:09;;;;;;;;;;;;;;;21.04;40.98;95866.16;10469840;28;1906;-58
2022/06/15 00:26:10;;;;;;;;;;;;;;;21.00;41.12;95859.81;10473708;28;1821;-58
2022/06/15 00:31:10;;;;;;;;;;;;;;;21.00;41.01;95859.03;10491706;28;1819;-59
2022/06/15 00:36:12;;;;;;;;;;;;;;;20.93;41.22;95863.81;10479512;28;1865;-59
2022/06/15 00:41:16;;;;;;;;;;;;;;;20.95;41.29;95851.97;10478625;28;1976;-58
2022/06/15 00:46:21;;;;;;;;;;;;;;;20.94;41.33;95847.72;10450212;28;2174;-57
2022/06/15 00:51:22;;;;;;;;;;;;;;;20.77;41.44;95846.53;10466410;28;1959;-60
2022/06/15 00:56:24;;;;;;;;;;;;;;;20.68;41.55;95846.31;10457229;28;1931;-60
2022/06/15 01:01:24;;;;;;;;;;;;;;;20.65;41.66;95840.81;10476668;28;1971;-60
2022/06/15 01:06:34;;;;;;;;;;;;;;;20.65;41.64;95838.94;10493650;28;2009;-60
2022/06/15 01:11:41;;;;;;;;;;;;;;;20.73;41.83;95846.25;10475665;28;1961;-60
2022/06/15 01:16:49;;;;;;;;;;;;;;;20.76;41.61;95837.03;10462777;28;1901;-57
2022/06/15 01:21:51;;;;;;;;;;;;;;;20.60;41.69;95835.56;10480267;28;1979;-59
2022/06/15 01:27:08;;;;;;;;;;;;;;;20.60;41.85;95828.44;10449984;28;1896;-60
2022/06/15 01:32:18;;;;;;;;;;;;;;;20.66;41.80;95826.56;10462458;28;1969;-59
2022/06/15 01:37:20;;;;;;;;;;;;;;;20.59;41.78;95826.06;10487193;28;2007;-60
2022/06/15 01:42:22;;;;;;;;;;;;;;;20.59;41.91;95832.13;10477224;28;1986;-59
2022/06/15 01:47:23;;;;;;;;;;;;;;;20.69;41.72;95821.53;10480246;28;2030;-60
2022/06/15 01:52:24;;;;;;;;;;;;;;;20.72;41.76;95826.28;10442591;28;1993;-57
2022/06/15 01:57:25;;;;;;;;;;;;;;;20.66;41.73;95822.09;10475355;28;2007;-59
2022/06/15 02:02:26;;;;;;;;;;;;;;;20.48;41.93;95820.09;10489388;28;1995;-59
2022/06/15 02:07:30;;;;;;;;;;;;;;;20.20;42.41;95818.06;10491940;28;1960;-57
2022/06/15 02:12:33;;;;;;;;;;;;;;;20.05;42.94;95820.75;10473704;28;2070;-60
2022/06/15 02:17:34;;;;;;;;;;;;;;;20.03;42.93;95801.81;10483579;28;1874;-59
2022/06/15 02:22:36;;;;;;;;;;;;;;;20.08;43.21;95796.50;10484310;28;2005;-58
2022/06/15 02:27:38;;;;;;;;;;;;;;;20.16;43.04;95793.31;10459109;28;2165;-59
2022/06/15 02:32:38;;;;;;;;;;;;;;;20.17;42.75;95784.38;10476460;28;1976;-59
2022/06/15 02:37:38;;;;;;;;;;;;;;;20.13;43.13;95791.25;10439986;28;1932;-58
2022/06/15 02:42:40;;;;;;;;;;;;;;;20.20;43.11;95795.19;10486089;28;2139;-58
2022/06/15 02:47:41;;;;;;;;;;;;;;;20.15;43.13;95797.03;10478765;28;1923;-61
2022/06/15 02:52:42;;;;;;;;;;;;;;;20.18;43.18;95809.63;10453024;28;1957;-60
2022/06/15 02:57:50;;;;;;;;;;;;;;;20.08;43.40;95793.88;10457592;28;2035;-58
2022/06/15 03:02:51;;;;;;;;;;;;;;;20.08;43.31;95793.88;10472450;28;1993;-59
2022/06/15 03:07:51;;;;;;;;;;;;;;;20.15;43.38;95795.16;10475702;28;2007;-60
2022/06/15 03:12:51;;;;;;;;;;;;;;;20.10;43.49;95789.13;10470982;28;1920;-59
2022/06/15 03:17:52;;;;;;;;;;;;;;;19.89;43.78;95792.88;10474613;28;2023;-59
2022/06/15 03:22:53;;;;;;;;;;;;;;;19.96;43.70;95780.25;10474966;28;2037;-58
2022/06/15 03:27:54;;;;;;;;;;;;;;;20.03;43.67;95776.25;10456186;28;1547;-60
2022/06/15 03:32:54;;;;;;;;;;;;;;;20.04;43.89;95775.22;10475117;28;1508;-59
2022/06/15 03:37:54;;;;;;;;;;;;;;;19.98;43.93;95778.94;10486536;28;1947;-59
2022/06/15 03:42:55;;;;;;;;;;;;;;;20.05;43.90;95773.38;10472295;28;1963;-59
2022/06/15 03:47:55;;;;;;;;;;;;;;;20.04;43.94;95777.06;10473582;28;1861;-59
2022/06/15 03:52:56;;;;;;;;;;;;;;;19.87;44.07;95776.59;10451493;28;1966;-59
2022/06/15 03:57:56;;;;;;;;;;;;;;;19.64;44.71;95777.97;10474850;28;1846;-58
2022/06/15 04:02:57;;;;;;;;;;;;;;;19.75;44.66;95781.34;10455172;28;1995;-58
2022/06/15 04:13:20;;;;;;;;;;;;;;;19.96;44.29;95796.03;10462013;28;1943;-58
2022/06/15 04:18:21;;;;;;;;;;;;;;;19.99;44.07;95792.88;10480787;28;1496;-60
2022/06/15 04:23:22;;;;;;;;;;;;;;;20.03;44.28;95792.06;10459959;28;1906;-58
2022/06/15 04:28:23;;;;;;;;;;;;;;;20.10;44.02;95789.94;10482810;28;1756;-60
2022/06/15 04:33:28;;;;;;;;;;;;;;;20.18;44.12;95799.09;10479906;28;1842;-58
2022/06/15 04:38:28;;;;;;;;;;;;;;;20.21;43.91;95802.03;10494930;28;1804;-58
2022/06/15 04:43:29;;;;;;;;;;;;;;;20.22;44.13;95805.44;10478395;28;1919;-59
2022/06/15 04:48:30;;;;;;;;;;;;;;;20.22;43.94;95802.81;10477716;28;1921;-58
2022/06/15 04:53:30;;;;;;;;;;;;;;;20.25;43.98;95807.53;10478566;28;1992;-59
2022/06/15 04:58:31;;;;;;;;;;;;;;;20.23;44.03;95814.91;10478039;28;1842;-57
2022/06/15 05:03:33;;;;;;;;;;;;;;;20.09;44.31;95806.75;10476710;28;2160;-58
2022/06/15 05:08:34;;;;;;;;;;;;;;;20.18;44.59;95801.75;10476758;28;1820;-58
2022/06/15 05:13:34;;;;;;;;;;;;;;;20.31;44.61;95803.03;10476002;28;1819;-59
2022/06/15 05:18:35;;;;;;;;;;;;;;;20.39;44.37;95819.06;10479973;28;1780;-58
2022/06/15 05:23:35;;;;;;;;;;;;;;;20.47;44.18;95813.22;10477275;28;1910;-60
2022/06/15 05:28:37;;;;;;;;;;;;;;;20.32;44.26;95817.78;10478031;28;1834;-59
2022/06/15 05:33:40;;;;;;;;;;;;;;;20.29;44.73;95811.22;10476219;28;1824;-59
2022/06/15 05:38:40;;;;;;;;;;;;;;;20.35;44.93;95804.06;10479947;28;1787;-60
2022/06/15 05:43:44;;;;;;;;;;;;;;;20.50;44.56;95807.44;10478450;28;1919;-61
2022/06/15 05:48:44;;;;;;;;;;;;;;;20.71;44.47;95811.50;10462848;28;1924;-58
2022/06/15 05:53:44;;;;;;;;;;;;;;;20.88;44.10;95814.56;10459649;28;1863;-60
2022/06/15 05:58:46;;;;;;;;;;;;;;;20.99;43.93;95808.19;10461749;28;1764;-57
2022/06/15 06:03:47;;;;;;;;;;;;;;;21.11;43.90;95809.69;10474918;28;1906;-60
2022/06/15 06:08:48;;;;;;;;;;;;;;;21.18;43.72;95805.69;10476966;28;1880;-58
2022/06/15 06:13:49;;;;;;;;;;;;;;;21.26;43.54;95810.38;10469267;28;1840;-59
2022/06/15 06:18:51;;;;;;;;;;;;;;;21.32;43.43;95806.63;10494093;28;1851;-59
2022/06/15 06:23:51;;;;;;;;;;;;;;;21.40;43.50;95815.78;10475394;28;1981;-57
2022/06/15 06:28:52;;;;;;;;;;;;;;;21.44;43.28;95812.34;10456338;28;1866;-60
2022/06/15 06:33:52;;;;;;;;;;;;;;;21.49;43.13;95809.66;10475452;28;1850;-61
2022/06/15 06:38:53;;;;;;;;;;;;;;;21.53;43.07;95807.25;10479545;28;1828;-58
2022/06/15 06:43:53;;;;;;;;;;;;;;;21.57;43.21;95810.91;10470135;28;1913;-59
2022/06/15 06:48:54;;;;;;;;;;;;;;;21.61;43.18;95819.84;10463345;28;1791;-59
2022/06/15 06:53:54;;;;;;;;;;;;;;;21.64;43.23;95817.41;10459172;28;1808;-59
2022/06/15 06:58:54;;;;;;;;;;;;;;;21.69;43.22;95820.03;10484318;28;1938;-61
2022/06/15 07:03:54;;;;;;;;;;;;;;;21.73;43.16;95821.03;10474660;28;1913;-58
2022/06/15 07:08:58;;;;;;;;;;;;;;;21.76;43.23;95820.47;10462311;28;1817;-59
2022/06/15 07:13:59;;;;;;;;;;;;;;;21.79;43.23;95809.38;10471096;28;2151;-59
2022/06/15 07:19:00;;;;;;;;;;;;;;;21.83;43.18;95815.69;10474529;28;1880;-57
2022/06/15 07:24:00;;;;;;;;;;;;;;;21.86;43.62;95819.63;10453055;28;1979;-56
2022/06/15 07:29:00;;;;;;;;;;;;;;;21.90;43.88;95825.91;10456980;28;1886;-59
2022/06/15 07:34:01;;;;;;;;;;;;;;;21.94;43.74;95824.28;10474916;28;1820;-60
2022/06/15 07:39:01;;;;;;;;;;;;;;;21.96;43.82;95824.78;10474540;28;1784;-59
2022/06/15 07:44:02;;;;;;;;;;;;;;;21.99;44.00;95826.09;10474190;28;1906;-58
2022/06/15 07:54:22;;;;;;;;;;;;;;;22.07;44.12;95814.91;10484783;28;1924;-59
2022/06/15 07:59:22;;;;;;;;;;;;;;;22.09;44.13;95810.91;10453992;28;1851;-59
2022/06/15 08:04:23;;;;;;;;;;;;;;;22.12;43.92;95818.28;10475009;28;1913;-56
2022/06/15 08:09:23;;;;;;;;;;;;;;;22.15;44.14;95816.94;10472566;28;1836;-57
2022/06/15 08:14:23;;;;;;;;;;;;;;;22.20;44.03;95817.66;10468942;28;1890;-57
2022/06/15 08:19:25;;;;;;;;;;;;;;;22.24;43.93;95809.94;10471991;28;1916;-60
2022/06/15 08:24:25;;;;;;;;;;;;;;;22.25;43.93;95807.03;10454792;28;2008;-58
2022/06/15 08:29:25;;;;;;;;;;;;;;;22.27;43.93;95793.56;10452214;28;1652;-62
2022/06/15 08:34:27;;;;;;;;;;;;;;;22.28;43.94;95806.47;10455299;28;1778;-59
2022/06/15 08:39:27;;;;;;;;;;;;;;;22.30;44.33;95799.03;10455361;28;1892;-56
2022/06/15 08:44:31;;;;;;;;;;;;;;;22.32;44.08;95802.19;10452764;28;1977;-61
2022/06/15 08:49:32;;;;;;;;;;;;;;;22.33;44.34;95795.84;10458047;28;1871;-62
2022/06/15 08:54:36;;;;;;;;;;;;;;;22.35;44.37;95795.56;10476890;28;1808;-57
2022/06/15 08:59:37;;;;;;;;;;;;;;;22.38;44.40;95795.00;10476779;28;1832;-60
2022/06/15 09:04:46;;;;;;;;;;;;;;;22.40;44.21;95798.16;10500786;28;1910;-61
2022/06/15 09:09:49;;;;;;;;;;;;;;;22.41;44.49;95795.22;10445627;28;1824;-61
2022/06/15 09:15:01;;;;;;;;;;;;;;;22.43;44.09;95789.66;10459766;28;1811;-58
2022/06/15 09:20:06;;;;;;;;;;;;;;;22.45;44.30;95787.50;10461802;28;1979;-60
2022/06/15 09:25:14;;;;;;;;;;;;;;;22.47;44.16;95793.28;10459006;28;1840;-59
2022/06/15 09:30:14;;;;;;;;;;;;;;;22.48;44.13;95787.72;10457753;28;1883;-61
2022/06/15 09:35:18;;;;;;;;;;;;;;;22.51;43.99;95791.66;10461094;28;1859;-60
2022/06/15 09:40:18;;;;;;;;;;;;;;;22.50;44.52;95790.84;10459368;28;1938;-59
2022/06/15 09:45:27;;;;;;;;;;;;;;;22.53;44.13;95786.88;10459777;28;1738;-61
2022/06/15 09:50:34;;;;;;;;;;;;;;;22.55;44.12;95790.81;10458835;28;1866;-57
2022/06/15 09:55:36;;;;;;;;;;;;;;;22.57;43.94;95793.16;10458272;28;1867;-59
2022/06/15 10:00:36;;;;;;;;;;;;;;;22.57;43.98;95793.94;10471104;28;1963;-58
2022/06/15 10:05:38;;;;;;;;;;;;;;;22.59;44.07;95789.19;10456947;28;1840;-60
2022/06/15 10:10:41;;;;;;;;;;;;;;;22.61;44.12;95780.97;10457849;28;2274;-57
2022/06/15 10:15:42;;;;;;;;;;;;;;;22.61;44.20;95784.41;10457302;28;1833;-60
2022/06/15 10:20:42;;;;;;;;;;;;;;;22.63;43.69;95792.84;10478855;28;1914;-58
2022/06/15 10:25:47;;;;;;;;;;;;;;;22.64;43.77;95783.84;10474516;28;1835;-60
2022/06/15 10:30:51;;;;;;;;;;;;;;;22.66;43.97;95780.91;10458479;28;1832;-58
2022/06/15 10:35:55;;;;;;;;;;;;;;;22.67;43.97;95772.69;10473007;28;1880;-60
2022/06/15 10:41:45;;;;;;;;;;;;;;;22.70;43.61;95773.19;10431057;28;1929;-59
2022/06/15 10:46:21;;;;;;;;;;;;;;;22.71;44.01;95769.50;10466154;28;1894;-61
2022/06/15 10:51:27;;;;;;;;;;;;;;;22.71;43.74;95766.84;10456806;28;1886;-60
2022/06/15 11:02:06;;;;;;;;;;;;;;;22.75;43.81;95758.03;10471190;28;1985;-58
2022/06/15 11:07:09;;;;;;;;;;;;;;;22.77;43.89;95755.13;10490649;28;2164;-59
2022/06/15 11:12:28;;;;;;;;;;;;;;;22.78;43.90;95760.13;10439506;28;1780;-61
2022/06/15 11:22:49;;;;;;;;;;;;;;;22.82;44.24;95747.09;10450863;28;1985;-59
2022/06/15 11:27:50;;;;;;;;;;;;;;;22.84;44.32;95744.97;10439508;28;1861;-61
2022/06/15 11:32:58;;;;;;;;;;;;;;;22.85;44.90;95735.97;10468853;28;1911;-61
2022/06/15 11:38:02;;;;;;;;;;;;;;;22.88;45.14;95740.66;10481522;28;1923;-59
2022/06/15 11:43:03;;;;;;;;;;;;;;;22.90;45.21;95739.31;10488372;28;1901;-59
2022/06/15 11:48:04;;;;;;;;;;;;;;;22.93;45.01;95744.03;10453746;28;1832;-60
2022/06/15 11:53:05;;;;;;;;;;;;;;;22.94;44.91;95735.03;10470601;28;1966;-58
2022/06/15 11:58:20;;;;;;;;;;;;;;;22.95;44.86;95733.16;10456838;28;1851;-55
2022/06/15 12:03:39;;;;;;;;;;;;;;;22.97;44.85;95731.03;10480527;28;1946;-59
2022/06/15 12:08:43;;;;;;;;;;;;;;;22.95;45.05;95725.25;10457336;28;1781;-58
2022/06/15 12:13:43;;;;;;;;;;;;;;;22.98;44.54;95725.44;10469474;28;1835;-58
2022/06/15 12:18:51;;;;;;;;;;;;;;;22.99;44.75;95726.22;10471144;28;1959;-59
2022/06/15 12:23:59;;;;;;;;;;;;;;;23.00;44.67;95727.81;10452653;28;1973;-59
2022/06/15 12:29:01;;;;;;;;;;;;;;;23.02;44.59;95715.09;10495201;28;1801;-59
2022/06/15 12:34:04;;;;;;;;;;;;;;;23.02;44.46;95721.16;10483087;28;1800;-60
2022/06/15 12:39:16;;;;;;;;;;;;;;;23.04;44.40;95723.53;10457950;28;1947;-57
2022/06/15 12:44:18;;;;;;;;;;;;;;;23.03;44.15;95717.44;10471750;28;1973;-58
2022/06/15 12:49:26;;;;;;;;;;;;;;;23.06;44.33;95721.38;10444831;28;1846;-59
2022/06/15 12:54:30;;;;;;;;;;;;;;;23.05;43.96;95715.28;10460223;28;1813;-61
2022/06/15 12:59:33;;;;;;;;;;;;;;;23.09;44.12;95718.94;10480471;28;1820;-60
2022/06/15 13:04:33;;;;;;;;;;;;;;;23.08;44.23;95719.22;10462266;28;1898;-58
2022/06/15 13:09:34;;;;;;;;;;;;;;;23.07;44.17;95709.72;10480144;28;1836;-57
2022/06/15 13:14:37;;;;;;;;;;;;;;;23.09;43.86;95716.28;10459090;28;1819;-57
2022/06/15 13:19:48;;;;;;;;;;;;;;;23.09;43.99;95710.19;10456369;28;1910;-58
2022/06/15 13:24:51;;;;;;;;;;;;;;;23.09;43.99;95707.56;10471226;28;1910;-59
2022/06/15 13:29:52;;;;;;;;;;;;;;;23.09;43.99;95712.84;10492172;28;1778;-57
2022/06/15 13:34:53;;;;;;;;;;;;;;;23.12;43.99;95707.00;10479518;28;1861;-60
2022/06/15 13:39:56;;;;;;;;;;;;;;;23.11;43.92;95719.41;10487354;28;1831;-59
2022/06/15 13:45:06;;;;;;;;;;;;;;;23.12;43.79;95710.41;10458679;28;1934;-59
2022/06/15 13:50:07;;;;;;;;;;;;;;;23.12;43.85;95704.34;10479551;28;1860;-57
2022/06/15 13:55:10;;;;;;;;;;;;;;;23.14;43.99;95705.59;10470018;28;1839;-60
2022/06/15 14:00:19;;;;;;;;;;;;;;;23.17;43.93;95709.53;10459834;28;1906;-60
2022/06/15 14:05:23;;;;;;;;;;;;;;;23.18;43.94;95700.53;10437359;28;1863;-59
2022/06/15 14:10:42;;;;;;;;;;;;;;;23.17;43.97;95696.31;10460108;28;1931;-58
2022/06/15 14:16:06;;;;;;;;;;;;;;;23.17;44.15;95706.88;10472022;28;1836;-59
2022/06/15 14:21:28;;;;;;;;;;;;;;;23.16;44.15;95695.53;10452182;28;2177;-58
2022/06/15 14:26:28;;;;;;;;;;;;;;;23.18;44.07;95684.66;10452500;28;1804;-60
2022/06/15 14:31:29;;;;;;;;;;;;;;;23.19;44.34;95694.16;10430219;28;1849;-58
2022/06/15 14:36:30;;;;;;;;;;;;;;;23.21;44.21;95681.44;10460072;28;1865;-58
2022/06/15 14:41:31;;;;;;;;;;;;;;;23.21;44.26;95676.94;10468342;28;1984;-60
2022/06/15 14:46:41;;;;;;;;;;;;;;;23.22;43.99;95681.16;10452351;28;1933;-59
2022/06/15 14:51:41;;;;;;;;;;;;;;;23.25;43.95;95674.47;10486441;28;1864;-60
2022/06/15 14:56:48;;;;;;;;;;;;;;;23.24;44.14;95675.56;10471570;28;1888;-59
2022/06/15 15:01:53;;;;;;;;;;;;;;;23.24;43.99;95668.44;10442708;28;2197;-59
2022/06/15 15:06:54;;;;;;;;;;;;;;;23.25;43.98;95680.56;10456273;28;1726;-59
2022/06/15 15:11:55;;;;;;;;;;;;;;;23.25;43.89;95669.19;10455667;28;1770;-60
2022/06/15 15:17:02;;;;;;;;;;;;;;;23.24;43.99;95663.13;10451368;28;1891;-60
2022/06/15 15:22:13;;;;;;;;;;;;;;;23.25;44.08;95658.63;10474507;28;2009;-58
2022/06/15 15:27:14;;;;;;;;;;;;;;;23.29;43.86;95667.53;10473698;28;1816;-60
2022/06/15 15:37:41;;;;;;;;;;;;;;;23.27;44.03;95664.41;10434961;28;1608;-61
2022/06/15 15:42:42;;;;;;;;;;;;;;;23.24;44.17;95662.34;10444284;28;1938;-55
2022/06/15 15:47:43;;;;;;;;;;;;;;;23.29;44.16;95656.94;10464234;28;1776;-58
2022/06/15 15:52:44;;;;;;;;;;;;;;;23.31;44.19;95660.88;10479959;28;1730;-57
2022/06/15 15:57:44;;;;;;;;;;;;;;;23.32;44.00;95651.91;10478176;28;1815;-57
2022/06/15 16:02:47;;;;;;;;;;;;;;;23.30;44.51;95645.31;10484381;28;1981;-60
2022/06/15 16:07:48;;;;;;;;;;;;;;;23.32;44.17;95645.84;10474821;28;1852;-60
2022/06/15 16:12:48;;;;;;;;;;;;;;;23.38;44.40;95655.25;10448548;28;1848;-61
2022/06/15 16:17:49;;;;;;;;;;;;;;;23.36;44.31;95649.47;10472467;28;1894;-60
2022/06/15 16:22:50;;;;;;;;;;;;;;;23.32;44.40;95640.53;10457214;28;1963;-62
2022/06/15 16:27:50;;;;;;;;;;;;;;;23.36;44.20;95644.16;10478855;28;1840;-59
2022/06/15 16:32:51;;;;;;;;;;;;;;;23.36;44.28;95647.59;10478619;28;1808;-60
2022/06/15 16:37:51;;;;;;;;;;;;;;;23.34;44.25;95648.97;10472727;28;1947;-60
2022/06/15 16:42:51;;;;;;;;;;;;;;;23.35;44.30;95650.50;10485757;28;1971;-59
2022/06/15 16:47:52;;;;;;;;;;;;;;;23.33;44.07;95652.66;10485265;28;1836;-60
2022/06/15 16:52:52;;;;;;;;;;;;;;;23.32;44.10;95657.19;10484383;28;1862;-57
2022/06/15 16:57:52;;;;;;;;;;;;;;;23.31;44.44;95655.59;10486632;28;1805;-58
2022/06/15 17:02:53;;;;;;;;;;;;;;;23.30;44.39;95654.03;10454315;28;2004;-58
2022/06/15 17:07:54;;;;;;;;;;;;;;;23.32;44.70;95651.13;10478930;28;1820;-57
2022/06/15 17:12:55;;;;;;;;;;;;;;;23.38;44.82;95652.59;10460554;28;1865;-57
2022/06/15 17:17:55;;;;;;;;;;;;;;;23.38;44.63;95652.59;10494348;28;1870;-55
2022/06/15 17:22:55;;;;;;;;;;;;;;;23.39;45.10;95662.88;10454145;28;1902;-58
2022/06/15 17:27:56;;;;;;;;;;;;;;;23.38;45.23;95660.53;10458987;28;1864;-59
2022/06/15 17:32:57;;;;;;;;;;;;;;;23.39;44.82;95657.56;10475536;28;1925;-60
2022/06/15 17:37:57;;;;;;;;;;;;;;;23.42;44.83;95661.50;10454468;28;1875;-60
2022/06/15 17:42:58;;;;;;;;;;;;;;;23.42;45.21;95666.78;10481298;28;1910;-58
2022/06/15 17:47:59;;;;;;;;;;;;;;;23.42;45.18;95666.78;10463643;28;1770;-57
2022/06/15 17:52:59;;;;;;;;;;;;;;;23.41;44.95;95666.00;10439346;28;1743;-61
2022/06/15 17:57:59;;;;;;;;;;;;;;;23.42;45.11;95669.44;10454302;28;1859;-61
2022/06/15 18:03:01;;;;;;;;;;;;;;;23.40;44.89;95672.38;10472119;28;1910;-60
2022/06/15 18:08:01;;;;;;;;;;;;;;;23.44;45.15;95675.22;10478720;28;1806;-60
2022/06/15 18:13:02;;;;;;;;;;;;;;;23.44;45.25;95672.56;10469558;28;1915;-59
2022/06/15 18:18:05;;;;;;;;;;;;;;;23.44;45.28;95678.66;10472648;28;1816;-60
2022/06/15 18:23:06;;;;;;;;;;;;;;;23.44;45.12;95677.88;10479245;28;1965;-61
2022/06/15 18:28:07;;;;;;;;;;;;;;;23.44;45.03;95675.22;10457715;28;1789;-61
2022/06/15 18:33:07;;;;;;;;;;;;;;;23.44;44.92;95680.50;10477246;28;1714;-62
2022/06/15 18:38:08;;;;;;;;;;;;;;;23.43;44.86;95679.72;10432415;28;1855;-60
2022/06/15 18:48:29;;;;;;;;;;;;;;;23.44;45.11;95681.31;10458122;28;1870;-60
2022/06/15 18:53:30;;;;;;;;;;;;;;;23.43;44.98;95684.25;10484730;28;1849;-61
2022/06/15 18:58:30;;;;;;;;;;;;;;;23.43;44.98;95685.00;10484629;28;1939;-60
2022/06/15 19:03:31;;;;;;;;;;;;;;;23.43;45.01;95692.19;10484735;28;1913;-62
2022/06/15 19:08:31;;;;;;;;;;;;;;;23.42;44.92;95691.41;10476055;28;1821;-60
2022/06/15 19:13:32;;;;;;;;;;;;;;;23.44;44.97;95693.75;10484270;28;1861;-60
2022/06/15 19:18:33;;;;;;;;;;;;;;;23.43;45.20;95687.66;10473086;28;1849;-59
2022/06/15 19:23:33;;;;;;;;;;;;;;;23.44;45.13;95693.75;10459324;28;1910;-60
2022/06/15 19:28:35;;;;;;;;;;;;;;;23.44;45.06;95701.69;10467363;28;1856;-60
2022/06/15 19:33:35;;;;;;;;;;;;;;;23.43;44.94;95708.81;10467925;28;1913;-60
2022/06/15 19:38:36;;;;;;;;;;;;;;;23.44;44.89;95717.56;10450641;28;1896;-61
2022/06/15 19:43:39;;;;;;;;;;;;;;;23.44;45.11;95721.00;10472667;28;1977;-61
2022/06/15 19:48:40;;;;;;;;;;;;;;;23.43;44.93;95727.34;10474590;28;1908;-61
2022/06/15 19:53:40;;;;;;;;;;;;;;;23.43;44.90;95727.34;10473544;28;1745;-59
2022/06/15 19:58:41;;;;;;;;;;;;;;;23.45;44.89;95716.50;10473923;28;1776;-62
2022/06/15 20:03:42;;;;;;;;;;;;;;;23.43;45.17;95719.41;10470254;28;1969;-61
2022/06/15 20:08:42;;;;;;;;;;;;;;;23.46;44.84;95723.34;10468621;28;1821;-61
2022/06/15 20:13:42;;;;;;;;;;;;;;;23.46;45.00;95728.63;10433919;28;2112;-62
2022/06/15 20:18:43;;;;;;;;;;;;;;;23.47;44.81;95724.13;10470840;28;1836;-62
2022/06/15 20:23:44;;;;;;;;;;;;;;;23.47;44.84;95726.78;10464920;28;1914;-62
2022/06/15 20:28:46;;;;;;;;;;;;;;;23.46;44.72;95725.97;10466053;28;1937;-61
2022/06/15 20:33:50;;;;;;;;;;;;;;;23.47;45.05;95730.22;10481361;28;1858;-60
2022/06/15 20:38:50;;;;;;;;;;;;;;;23.46;44.85;95731.28;10465033;28;1951;-61
2022/06/15 20:43:53;;;;;;;;;;;;;;;23.48;44.63;95733.63;10465005;28;1910;-60
2022/06/15 20:48:54;;;;;;;;;;;;;;;23.48;44.81;95733.63;10476382;28;1891;-62
2022/06/15 20:53:55;;;;;;;;;;;;;;;23.48;44.98;95734.41;10449245;28;1891;-61
2022/06/15 20:58:59;;;;;;;;;;;;;;;23.48;44.96;95725.69;10458438;28;1895;-60
2022/06/15 21:04:00;;;;;;;;;;;;;;;23.48;45.12;95725.69;10465633;28;1910;-60
2022/06/15 21:09:01;;;;;;;;;;;;;;;23.48;44.73;95726.47;10484323;28;1870;-59
2022/06/15 21:19:21;;;;;;;;;;;;;;;23.49;44.81;95732.56;10497659;28;1533;-60
2022/06/15 21:24:22;;;;;;;;;;;;;;;23.49;44.83;95729.91;10481106;28;2236;-60
2022/06/15 21:29:22;;;;;;;;;;;;;;;23.50;44.73;95729.59;10460601;28;1827;-60
2022/06/15 21:34:23;;;;;;;;;;;;;;;23.50;44.99;95726.16;10481179;28;2198;-60
2022/06/15 21:39:25;;;;;;;;;;;;;;;23.50;44.89;95721.66;10475010;28;1942;-62
2022/06/15 21:44:25;;;;;;;;;;;;;;;23.50;44.93;95713.72;10473468;28;2110;-60
2022/06/15 21:49:26;;;;;;;;;;;;;;;23.51;44.53;95717.16;10489632;28;1998;-60
2022/06/15 21:54:26;;;;;;;;;;;;;;;23.51;44.65;95715.31;10458839;28;1868;-61
2022/06/15 21:59:26;;;;;;;;;;;;;;;23.50;44.86;95713.72;10458591;28;1817;-61
2022/06/15 22:04:27;;;;;;;;;;;;;;;23.50;44.80;95715.59;10475943;28;2089;-58
2022/06/15 22:09:30;;;;;;;;;;;;;;;23.52;44.75;95718.72;10489891;28;1848;-58
2022/06/15 22:14:31;;;;;;;;;;;;;;;23.52;44.87;95718.72;10474264;28;1888;-62
2022/06/15 22:19:31;;;;;;;;;;;;;;;23.52;44.84;95724.00;10475508;28;1963;-61
2022/06/15 22:24:32;;;;;;;;;;;;;;;23.53;44.64;95722.94;10473121;28;1937;-60
2022/06/15 22:29:32;;;;;;;;;;;;;;;23.53;44.70;95718.44;10488974;28;1768;-58
2022/06/15 22:34:33;;;;;;;;;;;;;;;23.53;44.73;95720.31;10477594;28;1895;-60
2022/06/15 22:39:33;;;;;;;;;;;;;;;23.53;44.80;95715.81;10473291;28;1931;-59
2022/06/15 22:44:34;;;;;;;;;;;;;;;23.54;44.63;95713.94;10451355;28;1918;-60
2022/06/15 22:54:54;;;;;;;;;;;;;;;23.53;44.66;95707.09;10484569;28;1808;-58
2022/06/15 22:59:55;;;;;;;;;;;;;;;23.54;44.58;95704.13;10473424;28;1901;-61
2022/06/15 23:04:56;;;;;;;;;;;;;;;23.54;44.49;95701.50;10474067;28;1910;-59
2022/06/15 23:09:56;;;;;;;;;;;;;;;23.54;44.71;95711.28;10475840;28;1844;-57
2022/06/15 23:14:57;;;;;;;;;;;;;;;23.56;44.62;95717.06;10482339;28;1935;-60
2022/06/15 23:19:57;;;;;;;;;;;;;;;23.54;44.46;95714.72;10486362;28;1837;-60
2022/06/15 23:24:57;;;;;;;;;;;;;;;23.55;44.62;95708.38;10482946;28;2344;-59
2022/06/15 23:29:58;;;;;;;;;;;;;;;23.55;44.58;95718.16;10453609;28;1909;-61
2022/06/15 23:34:58;;;;;;;;;;;;;;;23.56;44.44;95711.78;10483014;28;1941;-61
2022/06/15 23:39:58;;;;;;;;;;;;;;;23.55;44.76;95708.38;10451253;28;1851;-60
2022/06/15 23:50:19;;;;;;;;;;;;;;;23.55;44.75;95705.72;10488594;28;2169;-61
2022/06/15 23:55:19;;;;;;;;;;;;;;;23.56;44.50;95704.63;10469849;28;1931;-61
